Time;durP1;ratioP1;P1;durP2;ratioP2;P2;SDS_P1;SDS_P2;PMS_P1;PMS_P2;Temp;Humidity;BMP_temperature;BMP_pressure;BME280_temperature;BME280_humidity;BME280_pressure;Samples;Min_cycle;Max_cycle;Signal;HPM_P1;HPM_P2
2023/06/16 00:00:19;;;;;;;19.50;14.70;;;;;;;11.75;70.60;97103.31;108775;1250;96355;-72
2023/06/16 00:03:06;;;;;;;19.50;13.70;;;;;;;11.66;70.77;97096.20;108974;1249;102519;-70
2023/06/16 00:05:34;;;;;;;18.40;13.40;;;;;;;11.62;71.04;97095.34;108878;1251;95871;-70
2023/06/16 00:08:02;;;;;;;17.40;13.60;;;;;;;11.60;71.05;97097.23;108809;1251;96537;-71
2023/06/16 00:10:30;;;;;;;22.40;15.00;;;;;;;11.58;71.09;97097.17;108830;1251;96067;-73
2023/06/16 00:12:57;;;;;;;19.30;13.50;;;;;;;11.56;71.27;97097.44;108830;1251;96096;-71
2023/06/16 00:15:24;;;;;;;15.10;11.80;;;;;;;11.55;71.24;97099.29;108847;1251;96275;-72
2023/06/16 00:17:50;;;;;;;16.60;12.70;;;;;;;11.53;71.24;97100.21;108882;1250;103671;-71
2023/06/16 00:20:19;;;;;;;15.70;12.10;;;;;;;11.52;71.38;97101.80;108624;1251;95679;-72
2023/06/16 00:22:48;;;;;;;14.40;12.40;;;;;;;11.51;71.27;97101.06;108950;1251;95745;-70
2023/06/16 00:25:16;;;;;;;16.70;13.00;;;;;;;11.50;71.40;97101.45;108833;1251;103512;-73
2023/06/16 00:27:43;;;;;;;16.90;13.40;;;;;;;11.48;71.39;97099.34;108559;1251;101040;-72
2023/06/16 00:30:10;;;;;;;19.70;13.50;;;;;;;11.47;71.45;97092.73;108893;1249;95684;-70
2023/06/16 00:32:37;;;;;;;14.50;12.40;;;;;;;11.45;71.57;97090.13;108942;1251;96105;-71
2023/06/16 00:35:04;;;;;;;18.90;13.70;;;;;;;11.43;71.48;97088.61;108964;1249;95618;-72
2023/06/16 00:37:31;;;;;;;16.60;12.40;;;;;;;11.40;71.59;97088.88;108952;1251;95609;-70
2023/06/16 00:39:58;;;;;;;15.30;12.60;;;;;;;11.36;71.67;97087.15;108923;1250;96560;-72
2023/06/16 00:42:25;;;;;;;15.60;13.40;;;;;;;11.32;71.78;97089.05;108937;1250;96728;-71
2023/06/16 00:44:51;;;;;;;16.90;13.50;;;;;;;11.30;71.82;97094.11;108942;1250;96067;-73
2023/06/16 00:47:18;;;;;;;17.90;13.40;;;;;;;11.28;71.90;97094.28;108800;1251;95597;-71
2023/06/16 00:49:44;;;;;;;16.60;13.80;;;;;;;11.26;71.83;97092.05;108854;1251;95997;-73
2023/06/16 00:52:15;;;;;;;14.80;12.40;;;;;;;11.22;71.99;97088.98;108856;1250;95670;-71
2023/06/16 00:54:42;;;;;;;16.50;12.70;;;;;;;11.21;72.18;97087.55;108799;1251;95797;-72
2023/06/16 00:57:09;;;;;;;16.40;13.30;;;;;;;11.20;72.01;97085.64;108389;1249;97174;-70
2023/06/16 00:59:36;;;;;;;14.90;12.90;;;;;;;11.18;71.94;97086.83;108927;1251;95847;-71
2023/06/16 01:02:04;;;;;;;18.50;12.70;;;;;;;11.16;72.04;97086.71;108690;1251;95652;-72
2023/06/16 01:04:31;;;;;;;17.10;13.40;;;;;;;11.14;71.99;97084.69;108834;1250;95961;-71
2023/06/16 01:07:11;;;;;;;16.60;12.70;;;;;;;11.11;72.08;97083.89;108920;1251;95586;-71
2023/06/16 01:10:09;;;;;;;16.70;13.00;;;;;;;11.08;72.12;97082.72;108961;1250;96058;-72
2023/06/16 01:12:57;;;;;;;14.70;12.90;;;;;;;11.06;72.31;97081.08;108881;1250;102907;-72
2023/06/16 01:15:27;;;;;;;20.10;14.00;;;;;;;11.04;72.34;97079.30;108899;1251;101432;-71
2023/06/16 01:17:59;;;;;;;16.30;12.40;;;;;;;11.02;72.35;97078.81;108840;1251;99354;-71
2023/06/16 01:20:43;;;;;;;;;;;;;;;11.00;72.40;97077.93;108831;1251;95815;-71
2023/06/16 01:23:40;;;;;;;17.30;13.10;;;;;;;10.95;72.51;97074.33;108648;1251;96435;-72
2023/06/16 01:26:09;;;;;;;17.00;13.70;;;;;;;10.92;72.61;97069.70;108914;1251;103513;-71
2023/06/16 01:28:40;;;;;;;17.10;12.40;;;;;;;10.90;72.61;97071.24;108939;1250;101601;-71
2023/06/16 01:31:12;;;;;;;18.40;13.10;;;;;;;10.89;72.56;97071.83;108865;1251;98859;-71
2023/06/16 01:33:40;;;;;;;17.60;13.70;;;;;;;10.85;72.58;97065.77;108961;1249;95597;-72
2023/06/16 01:36:09;;;;;;;16.70;13.60;;;;;;;10.80;72.70;97064.89;108905;1250;95988;-71
2023/06/16 01:38:36;;;;;;;17.40;13.10;;;;;;;10.78;72.87;97063.00;108925;1251;103372;-71
2023/06/16 01:41:03;;;;;;;17.10;13.80;;;;;;;10.77;72.93;97060.55;108855;1251;95676;-72
2023/06/16 01:43:30;;;;;;;18.70;13.50;;;;;;;10.76;72.87;97064.13;108902;1251;95609;-72
2023/06/16 01:45:58;;;;;;;16.10;13.20;;;;;;;10.74;73.04;97065.27;108884;1251;95559;-70
2023/06/16 01:48:25;;;;;;;16.20;12.60;;;;;;;10.74;72.99;97064.84;108663;1250;95900;-71
2023/06/16 01:50:53;;;;;;;16.00;12.10;;;;;;;10.74;73.01;97065.39;108939;1250;95629;-70
2023/06/16 01:53:19;;;;;;;15.10;12.60;;;;;;;10.73;73.04;97059.57;108966;1249;95675;-71
2023/06/16 01:55:50;;;;;;;18.40;12.90;;;;;;;10.73;73.19;97057.83;108963;1250;96558;-72
2023/06/16 01:58:19;;;;;;;16.90;12.90;;;;;;;10.73;73.12;97056.20;108949;1250;95810;-70
2023/06/16 02:01:08;;;;;;;20.50;13.90;;;;;;;10.73;73.29;97053.80;109009;1251;96042;-70
2023/06/16 02:03:42;;;;;;;17.50;12.50;;;;;;;10.74;73.29;97057.27;108979;1251;103509;-71
2023/06/16 02:06:14;;;;;;;16.30;12.70;;;;;;;10.73;73.39;97054.92;108975;1251;101286;-72
2023/06/16 02:08:43;;;;;;;16.80;12.50;;;;;;;10.67;73.30;97053.09;108946;1251;100034;-70
2023/06/16 02:11:11;;;;;;;14.90;12.20;;;;;;;10.63;73.60;97050.63;108964;1250;95626;-71
2023/06/16 02:13:38;;;;;;;15.90;12.70;;;;;;;10.63;73.75;97048.76;108949;1250;95933;-71
2023/06/16 02:16:06;;;;;;;18.90;13.20;;;;;;;10.63;73.75;97051.95;108976;1250;95638;-70
2023/06/16 02:18:32;;;;;;;16.90;13.30;;;;;;;10.63;73.56;97051.50;108908;1250;95565;-72
2023/06/16 02:20:59;;;;;;;18.30;12.40;;;;;;;10.63;73.47;97051.70;108945;1250;95644;-72
2023/06/16 02:23:26;;;;;;;17.30;12.90;;;;;;;10.62;73.54;97057.09;108572;1250;96638;-71
2023/06/16 02:25:53;;;;;;;16.30;12.90;;;;;;;10.59;73.74;97057.81;108985;1251;96316;-71
2023/06/16 02:28:19;;;;;;;17.40;13.20;;;;;;;10.56;73.63;97058.33;108765;1251;96493;-71
2023/06/16 02:30:46;;;;;;;16.80;12.20;;;;;;;10.54;73.66;97057.96;108943;1251;100323;-72
2023/06/16 02:33:13;;;;;;;16.70;12.60;;;;;;;10.54;73.55;97053.93;108965;1250;96004;-70
2023/06/16 02:35:40;;;;;;;16.70;12.90;;;;;;;10.53;73.61;97056.98;108955;1251;96025;-70
2023/06/16 02:38:08;;;;;;;15.00;12.50;;;;;;;10.50;73.63;97052.76;108996;1251;96097;-71
2023/06/16 02:40:35;;;;;;;16.70;12.70;;;;;;;10.50;73.64;97053.45;108974;1251;95585;-71
2023/06/16 02:43:02;;;;;;;13.80;12.00;;;;;;;10.46;73.67;97047.95;108880;1251;96451;-72
2023/06/16 02:45:28;;;;;;;14.70;12.10;;;;;;;10.45;73.67;97053.27;108611;1251;95693;-70
2023/06/16 02:47:55;;;;;;;14.90;13.00;;;;;;;10.44;73.71;97055.73;108920;1250;96513;-72
2023/06/16 02:50:22;;;;;;;17.50;13.30;;;;;;;10.42;73.83;97057.09;108654;1251;100386;-72
2023/06/16 02:52:49;;;;;;;16.50;13.20;;;;;;;10.41;73.88;97057.92;108954;1251;96124;-71
2023/06/16 02:55:16;;;;;;;16.10;13.40;;;;;;;10.41;73.88;97057.69;108984;1251;95686;-70
2023/06/16 02:57:43;;;;;;;18.20;13.70;;;;;;;10.40;73.83;97054.25;108990;1251;96002;-72
2023/06/16 03:00:10;;;;;;;16.00;12.30;;;;;;;10.38;73.85;97053.19;108724;1250;95683;-71
2023/06/16 03:02:38;;;;;;;16.80;12.20;;;;;;;10.38;73.91;97051.45;108979;1251;96064;-71
2023/06/16 03:05:06;;;;;;;14.00;12.50;;;;;;;10.37;74.10;97053.25;108881;1251;95628;-71
2023/06/16 03:07:34;;;;;;;16.40;13.50;;;;;;;10.33;74.15;97053.55;108637;1251;95668;-71
2023/06/16 03:10:02;;;;;;;15.90;12.90;;;;;;;10.31;74.27;97050.13;108919;1250;95958;-72
2023/06/16 03:12:29;;;;;;;15.20;13.00;;;;;;;10.32;74.45;97047.66;108580;1257;103513;-71
2023/06/16 03:14:56;;;;;;;16.70;13.60;;;;;;;10.33;74.47;97049.45;108936;1251;95628;-70
2023/06/16 03:17:22;;;;;;;15.80;12.90;;;;;;;10.35;74.46;97050.64;108957;1251;96015;-71
2023/06/16 03:19:49;;;;;;;18.30;13.30;;;;;;;10.36;74.63;97050.05;108974;1251;95781;-72
2023/06/16 03:22:17;;;;;;;16.30;12.80;;;;;;;10.38;74.63;97052.52;109023;1250;95587;-72
2023/06/16 03:24:44;;;;;;;19.70;13.10;;;;;;;10.39;74.50;97054.48;109070;1251;96051;-71
2023/06/16 03:27:12;;;;;;;15.40;12.90;;;;;;;10.39;74.81;97055.95;108935;1251;99900;-70
2023/06/16 03:29:38;;;;;;;20.50;14.20;;;;;;;10.38;74.79;97054.52;108651;1251;96041;-72
2023/06/16 03:32:06;;;;;;;21.50;14.90;;;;;;;10.39;74.90;97060.27;108989;1251;95667;-71
2023/06/16 03:34:32;;;;;;;20.70;14.70;;;;;;;10.41;75.18;97059.47;109001;1251;95931;-72
2023/06/16 03:36:59;;;;;;;20.60;14.90;;;;;;;10.41;75.22;97061.09;108995;1251;95671;-70
2023/06/16 03:39:26;;;;;;;20.90;15.50;;;;;;;10.40;75.15;97056.36;108948;1250;95626;-73
2023/06/16 03:41:53;;;;;;;23.50;15.20;;;;;;;10.39;75.17;97056.21;108990;1251;95606;-73
2023/06/16 03:44:19;;;;;;;18.30;14.70;;;;;;;10.42;75.14;97056.60;108974;1250;102246;-70
2023/06/16 03:46:46;;;;;;;17.90;14.60;;;;;;;10.46;75.39;97055.70;108971;1253;95653;-72
2023/06/16 03:49:13;;;;;;;20.10;14.70;;;;;;;10.50;75.56;97057.98;108966;1251;96503;-72
2023/06/16 03:51:40;;;;;;;21.70;15.70;;;;;;;10.54;75.54;97060.38;108944;1249;95621;-72
2023/06/16 03:54:06;;;;;;;21.20;15.50;;;;;;;10.57;75.52;97063.10;109098;1249;96670;-71
2023/06/16 03:56:33;;;;;;;21.30;15.00;;;;;;;10.60;75.56;97061.63;108628;1251;101758;-71
2023/06/16 03:59:00;;;;;;;18.70;15.10;;;;;;;10.63;75.46;97061.27;108681;1251;339800;-71
2023/06/16 04:01:27;;;;;;;19.50;15.40;;;;;;;10.65;75.43;97057.95;109000;1250;95511;-73
2023/06/16 04:03:53;;;;;;;18.70;13.40;;;;;;;10.68;75.57;97054.28;108681;1251;95789;-71
2023/06/16 04:06:20;;;;;;;20.20;14.40;;;;;;;10.72;75.65;97057.26;108651;1251;95835;-72
2023/06/16 04:08:47;;;;;;;22.50;14.60;;;;;;;10.75;75.79;97057.62;108845;1250;98998;-71
2023/06/16 04:11:15;;;;;;;19.60;14.60;;;;;;;10.77;75.62;97058.27;108948;1251;95664;-72
2023/06/16 04:13:42;;;;;;;17.80;13.80;;;;;;;10.80;75.83;97060.12;109013;1250;95683;-72
2023/06/16 04:16:08;;;;;;;20.70;13.70;;;;;;;10.84;75.74;97059.05;108716;1250;96007;-72
2023/06/16 04:18:35;;;;;;;17.80;13.70;;;;;;;10.87;75.71;97057.46;108650;1251;95802;-72
2023/06/16 04:21:02;;;;;;;22.20;14.40;;;;;;;10.92;75.80;97059.67;108952;1251;95611;-70
2023/06/16 04:23:29;;;;;;;17.80;13.80;;;;;;;10.96;75.82;97058.86;108916;1253;95647;-71
2023/06/16 04:25:55;;;;;;;18.40;14.10;;;;;;;11.00;75.89;97059.94;109101;1251;95699;-72
2023/06/16 04:28:24;;;;;;;21.10;13.90;;;;;;;11.04;75.96;97058.61;108966;1249;101195;-72
2023/06/16 04:30:52;;;;;;;20.30;13.80;;;;;;;11.08;75.92;97058.05;108936;1251;100064;-70
2023/06/16 04:33:22;;;;;;;24.50;14.40;;;;;;;11.12;76.15;97053.25;108969;1251;95540;-72
2023/06/16 04:35:50;;;;;;;17.90;14.00;;;;;;;11.15;75.99;97048.31;108628;1251;96042;-72
2023/06/16 04:38:17;;;;;;;19.10;14.40;;;;;;;11.21;75.88;97053.13;108938;1251;103445;-70
2023/06/16 04:40:44;;;;;;;17.10;14.00;;;;;;;11.27;75.83;97048.66;108963;1251;95591;-70
2023/06/16 04:43:11;;;;;;;18.80;13.50;;;;;;;11.33;76.06;97042.52;108950;1251;95673;-70
2023/06/16 04:45:38;;;;;;;17.10;13.50;;;;;;;11.40;76.07;97041.61;108939;1251;95726;-73
2023/06/16 04:48:04;;;;;;;15.40;13.70;;;;;;;11.46;76.05;97040.71;108772;1251;95746;-70
2023/06/16 04:50:31;;;;;;;20.20;14.10;;;;;;;11.51;76.00;97039.44;109092;1251;95629;-71
2023/06/16 04:52:58;;;;;;;15.30;13.60;;;;;;;11.56;76.21;97040.73;108960;1249;100008;-71
2023/06/16 04:55:26;;;;;;;17.20;14.10;;;;;;;11.61;76.20;97039.08;108933;1251;96341;-72
2023/06/16 04:57:52;;;;;;;18.00;13.50;;;;;;;11.67;76.25;97040.34;108611;1251;97006;-70
2023/06/16 05:00:19;;;;;;;18.90;14.00;;;;;;;11.73;76.07;97041.79;108855;1250;95590;-70
2023/06/16 05:02:46;;;;;;;17.20;13.50;;;;;;;11.79;76.00;97042.38;108994;1251;96035;-71
2023/06/16 05:05:13;;;;;;;19.00;13.80;;;;;;;11.84;76.10;97042.42;108982;1250;95671;-71
2023/06/16 05:07:39;;;;;;;16.40;13.60;;;;;;;11.90;76.05;97042.52;109055;1249;95637;-72
2023/06/16 05:10:07;;;;;;;19.10;14.20;;;;;;;11.97;76.14;97045.38;108964;1251;103584;-71
2023/06/16 05:12:33;;;;;;;21.20;14.20;;;;;;;12.06;76.06;97040.80;108661;1251;101265;-71
2023/06/16 05:15:00;;;;;;;16.40;13.90;;;;;;;12.14;76.14;97044.43;108922;1251;97069;-70
2023/06/16 05:17:27;;;;;;;20.10;14.00;;;;;;;12.24;76.20;97042.96;109012;1251;96583;-72
2023/06/16 05:19:53;;;;;;;23.20;15.20;;;;;;;12.35;76.26;97042.80;109007;1250;95608;-71
2023/06/16 05:22:23;;;;;;;18.20;14.50;;;;;;;12.45;76.30;97042.73;108690;1259;95853;-72
2023/06/16 05:24:54;;;;;;;18.30;14.50;;;;;;;12.56;76.45;97042.50;108943;1251;99727;-71
2023/06/16 05:27:24;;;;;;;18.90;14.20;;;;;;;12.68;76.56;97043.77;108961;1251;95890;-70
2023/06/16 05:29:52;;;;;;;22.10;15.50;;;;;;;12.79;76.32;97039.14;108728;1251;95658;-71
2023/06/16 05:32:21;;;;;;;16.50;14.60;;;;;;;12.90;76.30;97038.33;108877;1251;103582;-72
2023/06/16 05:34:49;;;;;;;19.10;14.50;;;;;;;13.02;76.21;97034.94;108616;1251;101248;-71
2023/06/16 05:37:17;;;;;;;15.40;13.20;;;;;;;13.14;75.96;97030.56;108572;1251;100288;-73
2023/06/16 05:39:45;;;;;;;17.90;13.60;;;;;;;13.24;75.63;97029.52;108838;1251;95613;-71
2023/06/16 05:42:13;;;;;;;17.20;13.60;;;;;;;13.35;75.35;97027.52;108972;1251;97071;-73
2023/06/16 05:44:44;;;;;;;16.70;13.40;;;;;;;13.46;75.11;97023.91;108983;1251;103501;-73
2023/06/16 05:47:11;;;;;;;16.30;13.60;;;;;;;13.56;75.11;97024.77;109027;1251;101117;-72
2023/06/16 05:49:38;;;;;;;17.40;13.30;;;;;;;13.66;74.89;97023.84;108617;1251;99371;-72
2023/06/16 05:52:06;;;;;;;17.30;13.90;;;;;;;13.75;74.76;97023.80;108675;1251;96049;-73
2023/06/16 05:54:33;;;;;;;17.40;13.50;;;;;;;13.84;74.59;97023.35;109036;1249;95673;-71
2023/06/16 05:57:00;;;;;;;17.50;14.50;;;;;;;13.94;74.36;97017.73;108996;1251;95652;-72
2023/06/16 05:59:27;;;;;;;17.40;14.60;;;;;;;14.03;74.23;97015.94;108960;1250;95971;-72
2023/06/16 06:01:54;;;;;;;15.90;14.10;;;;;;;14.12;74.29;97013.73;108739;1250;95797;-71
2023/06/16 06:04:30;;;;;;;20.50;14.20;;;;;;;14.25;74.60;97012.72;108606;1251;96643;-72
2023/06/16 06:06:58;;;;;;;15.90;13.70;;;;;;;14.39;74.72;97007.66;108980;1250;96100;-73
2023/06/16 06:09:25;;;;;;;17.60;13.90;;;;;;;14.54;74.68;97012.83;108989;1250;103609;-74
2023/06/16 06:11:52;;;;;;;15.90;13.90;;;;;;;14.68;74.77;97008.39;108966;1251;95649;-72
2023/06/16 06:14:19;;;;;;;17.80;13.80;;;;;;;14.82;74.41;97012.85;108961;1251;95646;-73
2023/06/16 06:16:46;;;;;;;15.50;13.50;;;;;;;14.96;73.65;97012.78;108926;1251;95641;-72
2023/06/16 06:19:13;;;;;;;16.30;12.60;;;;;;;15.07;73.20;97007.46;108951;1251;95699;-72
2023/06/16 06:21:39;;;;;;;14.70;13.10;;;;;;;15.18;72.93;97005.66;108786;1250;95620;-72
2023/06/16 06:24:07;;;;;;;16.40;13.90;;;;;;;15.31;72.65;97008.08;109009;1251;95661;-71
2023/06/16 06:26:33;;;;;;;16.10;12.60;;;;;;;15.45;72.48;97010.83;108633;1251;95637;-73
2023/06/16 06:29:00;;;;;;;15.30;11.50;;;;;;;15.58;72.17;97007.23;108952;1249;95650;-74
2023/06/16 06:31:27;;;;;;;13.30;11.60;;;;;;;15.71;71.86;97006.56;108974;1250;95616;-74
2023/06/16 06:33:54;;;;;;;14.00;11.70;;;;;;;15.84;71.89;97003.41;108943;1250;95853;-72
2023/06/16 06:36:26;;;;;;;14.40;12.60;;;;;;;16.03;72.11;96999.00;108922;1250;95662;-75
2023/06/16 06:38:54;;;;;;;12.70;11.10;;;;;;;16.20;71.73;97003.04;108954;1250;95627;-72
2023/06/16 06:41:22;;;;;;;14.90;11.50;;;;;;;16.36;71.44;97003.58;109018;1250;96090;-72
2023/06/16 06:43:50;;;;;;;13.30;11.80;;;;;;;16.50;71.05;97005.74;108965;1251;103370;-72
2023/06/16 06:46:17;;;;;;;12.80;10.90;;;;;;;16.65;70.85;97004.32;108792;1250;96071;-72
2023/06/16 06:48:45;;;;;;;12.70;11.10;;;;;;;16.78;70.51;96999.86;108936;1251;100013;-71
2023/06/16 06:51:13;;;;;;;13.90;11.80;;;;;;;16.91;70.21;97002.08;108942;1250;95796;-72
2023/06/16 06:53:40;;;;;;;12.70;11.30;;;;;;;17.03;69.95;97002.98;108980;1251;96465;-73
2023/06/16 06:56:07;;;;;;;16.90;11.90;;;;;;;17.14;69.82;97002.45;108960;1250;95645;-74
2023/06/16 06:58:34;;;;;;;12.70;11.30;;;;;;;17.24;69.47;97006.17;108981;1251;95648;-72
2023/06/16 07:01:01;;;;;;;13.50;11.90;;;;;;;17.34;69.15;97004.83;108959;1251;96638;-75
2023/06/16 07:03:27;;;;;;;15.90;12.60;;;;;;;17.43;68.79;97005.20;108611;1251;95729;-72
2023/06/16 07:05:54;;;;;;;16.50;13.60;;;;;;;17.49;68.68;97003.77;108877;1251;95724;-72
2023/06/16 07:08:21;;;;;;;20.50;13.20;;;;;;;17.54;68.88;97005.80;109036;1251;95978;-72
2023/06/16 07:10:48;;;;;;;17.90;13.40;;;;;;;17.56;69.16;97008.59;108991;1250;100003;-73
2023/06/16 07:13:15;;;;;;;18.60;14.20;;;;;;;17.60;68.78;97010.42;108936;1250;96698;-72
2023/06/16 07:15:42;;;;;;;17.50;14.10;;;;;;;17.67;68.45;97009.54;108974;1250;95628;-72
2023/06/16 07:18:09;;;;;;;18.60;14.00;;;;;;;17.74;68.39;97011.27;108957;1250;95582;-73
2023/06/16 07:20:36;;;;;;;19.50;13.30;;;;;;;17.80;68.36;97012.06;108959;1251;95623;-72
2023/06/16 07:23:03;;;;;;;19.10;13.50;;;;;;;17.88;68.17;97011.21;109001;1251;95946;-71
2023/06/16 07:25:32;;;;;;;16.90;13.00;;;;;;;17.97;67.99;97011.64;109022;1251;96002;-72
2023/06/16 07:27:59;;;;;;;18.90;13.00;;;;;;;18.06;67.77;97006.59;108978;1251;103864;-71
2023/06/16 07:30:26;;;;;;;15.90;12.00;;;;;;;18.15;67.69;96999.63;108989;1250;96500;-72
2023/06/16 07:32:53;;;;;;;14.70;12.00;;;;;;;18.26;67.70;96998.06;108978;1251;95867;-72
2023/06/16 07:35:20;;;;;;;9.40;8.50;;;;;;;18.42;67.52;96993.61;108653;1251;95724;-75
2023/06/16 07:37:47;;;;;;;9.10;8.00;;;;;;;18.54;66.96;96990.95;108973;1250;95635;-75
2023/06/16 07:40:14;;;;;;;9.60;7.80;;;;;;;18.68;66.62;96989.57;109063;1250;95977;-73
2023/06/16 07:42:42;;;;;;;10.60;7.80;;;;;;;18.84;66.18;96987.86;108965;1250;95616;-73
2023/06/16 07:45:09;;;;;;;9.00;7.10;;;;;;;19.02;66.25;96986.27;108971;1250;95650;-73
2023/06/16 07:47:36;;;;;;;8.80;7.00;;;;;;;19.22;65.87;96986.85;108949;1249;95692;-75
2023/06/16 07:50:03;;;;;;;8.10;6.50;;;;;;;19.42;65.27;96983.80;108983;1250;96976;-73
2023/06/16 07:52:30;;;;;;;8.30;7.10;;;;;;;19.62;64.83;96985.56;108813;1250;95698;-75
2023/06/16 07:54:57;;;;;;;11.20;8.00;;;;;;;19.83;63.96;96986.73;108933;1250;99741;-73
2023/06/16 07:57:24;;;;;;;7.70;6.60;;;;;;;20.07;63.76;96981.86;109002;1250;96592;-72
2023/06/16 07:59:51;;;;;;;8.70;7.80;;;;;;;20.35;63.37;96985.82;109008;1249;95619;-76
2023/06/16 08:02:17;;;;;;;9.10;8.10;;;;;;;20.55;62.75;96987.84;108996;1250;95626;-75
2023/06/16 08:04:45;;;;;;;9.70;7.80;;;;;;;20.66;61.91;96989.30;109042;1251;95752;-74
2023/06/16 08:07:12;;;;;;;9.50;8.40;;;;;;;20.83;61.38;96993.71;108935;1250;95634;-73
2023/06/16 08:09:38;;;;;;;11.00;9.80;;;;;;;21.11;61.09;96994.80;108662;1250;95706;-73
2023/06/16 08:12:09;;;;;;;10.20;9.20;;;;;;;21.40;60.43;96991.91;108957;1250;95586;-72
2023/06/16 08:14:37;;;;;;;11.90;8.50;;;;;;;21.55;59.39;96987.85;108698;1250;100603;-73
2023/06/16 08:17:04;;;;;;;9.30;8.40;;;;;;;21.57;58.91;96985.02;108972;1250;99912;-75
2023/06/16 08:19:30;;;;;;;9.50;8.30;;;;;;;21.48;58.72;96985.77;108814;1250;97262;-73
2023/06/16 08:21:59;;;;;;;9.50;8.50;;;;;;;21.35;57.92;96986.68;108772;1251;95862;-76
2023/06/16 08:24:26;;;;;;;9.00;8.10;;;;;;;21.35;57.86;96985.71;108971;1250;103553;-73
2023/06/16 08:26:53;;;;;;;11.20;8.70;;;;;;;21.33;57.24;96981.71;109018;1250;95660;-73
2023/06/16 08:29:29;;;;;;;13.60;9.40;;;;;;;21.33;57.32;96983.86;108690;1250;96065;-73
2023/06/16 08:31:57;;;;;;;9.40;8.50;;;;;;;21.45;57.45;96979.88;108918;1250;95536;-76
2023/06/16 08:34:23;;;;;;;11.40;8.60;;;;;;;21.71;57.51;96983.16;108964;1250;95964;-73
2023/06/16 08:36:50;;;;;;;10.40;8.60;;;;;;;22.07;57.48;96983.11;108974;1250;96036;-77
2023/06/16 08:39:17;;;;;;;10.80;9.10;;;;;;;22.25;56.56;96979.35;108993;1250;95606;-76
2023/06/16 08:41:46;;;;;;;10.50;9.40;;;;;;;22.41;55.68;96976.96;108676;1251;95688;-74
2023/06/16 08:44:18;;;;;;;9.60;8.70;;;;;;;22.82;54.99;96975.42;108754;1249;95695;-73
2023/06/16 08:46:45;;;;;;;9.30;8.50;;;;;;;23.08;54.79;96968.73;108978;1250;95607;-73
2023/06/16 08:49:15;;;;;;;9.80;8.80;;;;;;;23.20;54.40;96969.29;108945;1249;103528;-74
2023/06/16 08:51:50;;;;;;;10.30;9.20;;;;;;;23.45;53.89;96967.83;108951;1250;102124;-77
2023/06/16 08:54:19;;;;;;;9.90;9.00;;;;;;;23.60;53.33;96969.55;108875;1249;100054;-74
2023/06/16 08:56:48;;;;;;;9.90;9.00;;;;;;;23.64;53.25;96967.22;108926;1250;95574;-74
2023/06/16 08:59:17;;;;;;;9.80;8.90;;;;;;;23.67;52.74;96963.61;108657;1251;95743;-76
2023/06/16 09:01:46;;;;;;;9.60;8.80;;;;;;;23.68;52.12;96960.68;108941;1250;103708;-73
2023/06/16 09:04:13;;;;;;;11.50;9.00;;;;;;;23.69;52.26;96962.38;109027;1250;101222;-73
2023/06/16 09:06:45;;;;;;;10.50;9.30;;;;;;;23.81;52.22;96962.80;108934;1250;99630;-73
2023/06/16 09:09:13;;;;;;;10.40;9.40;;;;;;;23.96;52.32;96959.17;108972;1250;96005;-75
2023/06/16 09:11:40;;;;;;;10.60;9.50;;;;;;;24.15;51.69;96960.54;108984;1249;96507;-73
2023/06/16 09:14:14;;;;;;;10.20;9.30;;;;;;;24.21;50.75;96961.95;108994;1249;96016;-74
2023/06/16 09:16:42;;;;;;;12.20;10.60;;;;;;;24.28;50.52;96959.16;108682;1251;101166;-77
2023/06/16 09:19:10;;;;;;;11.50;9.70;;;;;;;24.35;50.88;96956.85;108691;1250;98967;-75
2023/06/16 09:21:38;;;;;;;10.70;9.50;;;;;;;24.38;50.64;96956.08;108925;1250;95616;-74
2023/06/16 09:24:06;;;;;;;11.20;9.90;;;;;;;24.38;50.22;96953.15;109006;1250;95811;-75
2023/06/16 09:26:38;;;;;;;10.30;9.40;;;;;;;24.40;49.79;96953.86;108661;1251;95885;-73
2023/06/16 09:29:24;;;;;;;11.70;10.10;;;;;;;24.41;49.63;96953.61;108984;1250;101488;-73
2023/06/16 09:31:52;;;;;;;10.00;9.00;;;;;;;24.42;48.80;96953.88;108958;1250;100041;-73
2023/06/16 09:34:19;;;;;;;10.30;9.30;;;;;;;24.39;48.88;96951.08;108982;1250;95631;-74
2023/06/16 09:36:46;;;;;;;10.80;9.70;;;;;;;24.39;48.65;96946.40;108963;1250;95650;-74
2023/06/16 09:39:26;;;;;;;10.80;9.20;;;;;;;24.38;48.88;96944.81;109018;1250;96077;-73
2023/06/16 09:41:54;;;;;;;11.80;10.60;;;;;;;24.37;48.58;96942.37;109032;1250;101450;-74
2023/06/16 09:44:24;;;;;;;10.30;9.30;;;;;;;24.38;48.61;96939.45;108978;1250;99909;-71
2023/06/16 09:46:51;;;;;;;10.60;9.50;;;;;;;24.43;48.54;96936.86;108646;1251;95675;-74
2023/06/16 09:49:25;;;;;;;11.00;9.80;;;;;;;24.34;48.12;96937.35;109036;1249;95943;-73
2023/06/16 09:51:59;;;;;;;10.00;9.00;;;;;;;24.21;47.88;96935.43;108974;1250;103506;-73
2023/06/16 09:54:27;;;;;;;10.90;9.80;;;;;;;24.15;47.96;96931.58;109012;1249;101604;-73
2023/06/16 09:56:55;;;;;;;11.10;10.10;;;;;;;24.12;47.89;96932.14;108982;1250;100110;-76
2023/06/16 09:59:26;;;;;;;12.20;9.80;;;;;;;24.19;48.31;96929.84;108998;1249;95710;-74
2023/06/16 10:01:56;;;;;;;11.80;10.40;;;;;;;24.35;48.35;96927.77;108982;1250;95616;-77
2023/06/16 10:04:23;;;;;;;10.50;9.50;;;;;;;24.46;47.59;96930.17;109035;1250;103090;-73
2023/06/16 10:06:57;;;;;;;10.90;9.80;;;;;;;24.51;47.03;96933.69;108718;1251;95795;-75
2023/06/16 10:09:51;;;;;;;12.50;9.70;;;;;;;24.61;46.57;96935.55;108987;1250;100146;-76
2023/06/16 10:12:20;;;;;;;12.20;10.70;;;;;;;24.75;47.14;96932.11;108646;1251;95623;-75
2023/06/16 10:14:47;;;;;;;13.50;9.80;;;;;;;24.86;46.61;96926.70;108981;1249;95731;-76
2023/06/16 10:17:18;;;;;;;10.10;9.00;;;;;;;24.85;45.95;96927.02;108996;1250;103599;-73
2023/06/16 10:19:51;;;;;;;10.60;9.50;;;;;;;24.80;45.54;96923.98;109040;1249;101018;-74
2023/06/16 10:22:18;;;;;;;11.00;9.90;;;;;;;24.74;45.38;96926.16;108638;1251;99954;-75
2023/06/16 10:24:47;;;;;;;10.90;9.50;;;;;;;24.69;45.94;96925.19;108955;1250;95585;-75
2023/06/16 10:27:14;;;;;;;11.80;10.70;;;;;;;24.74;46.52;96920.16;108998;1250;95600;-74
2023/06/16 10:29:42;;;;;;;10.80;9.70;;;;;;;24.74;46.29;96919.44;108962;1250;95617;-73
2023/06/16 10:32:10;;;;;;;11.00;10.00;;;;;;;24.68;46.33;96917.33;108985;1249;101074;-74
2023/06/16 10:34:56;;;;;;;10.80;9.70;;;;;;;24.57;46.07;96916.84;108692;1250;100136;-74
2023/06/16 10:37:26;;;;;;;10.70;9.40;;;;;;;24.68;46.50;96915.27;108971;1250;95522;-74
2023/06/16 10:39:57;;;;;;;11.50;10.20;;;;;;;24.89;46.79;96911.62;108964;1250;96638;-74
2023/06/16 10:42:24;;;;;;;11.70;10.00;;;;;;;25.10;46.43;96915.73;108684;1250;102166;-74
2023/06/16 10:44:52;;;;;;;12.20;10.00;;;;;;;25.24;46.19;96915.58;108982;1250;95736;-75
2023/06/16 10:47:18;;;;;;;10.20;9.30;;;;;;;25.24;45.80;96911.09;108969;1250;96045;-74
2023/06/16 10:49:50;;;;;;;10.40;9.40;;;;;;;25.21;45.23;96910.08;108997;1249;95571;-75
2023/06/16 10:52:17;;;;;;;13.90;10.00;;;;;;;25.14;45.50;96911.20;108972;1249;96020;-73
2023/06/16 10:54:48;;;;;;;10.70;9.70;;;;;;;25.08;45.47;96908.27;109008;1249;96115;-74
2023/06/16 10:57:15;;;;;;;9.70;8.80;;;;;;;25.04;45.50;96907.83;108981;1250;109887;-74
2023/06/16 11:00:10;;;;;;;9.90;9.00;;;;;;;24.97;45.52;96904.42;108873;1251;99673;-73
2023/06/16 11:02:48;;;;;;;9.80;8.80;;;;;;;24.90;45.14;96901.23;108918;1249;96571;-73
2023/06/16 11:05:15;;;;;;;10.40;9.20;;;;;;;24.78;45.02;96901.19;108981;1250;95854;-74
2023/06/16 11:08:05;;;;;;;10.10;8.60;;;;;;;24.64;45.03;96898.72;108992;1249;95618;-76
2023/06/16 11:10:52;;;;;;;10.10;8.90;;;;;;;24.57;44.43;96897.56;108863;1249;101005;-77
2023/06/16 11:13:23;;;;;;;11.40;9.40;;;;;;;24.46;44.46;96892.92;108911;1250;99701;-74
2023/06/16 11:15:52;;;;;;;11.40;10.20;;;;;;;24.49;45.17;96890.27;108957;1250;95628;-77
2023/06/16 11:18:24;;;;;;;10.30;9.30;;;;;;;24.67;45.41;96882.24;108970;1249;96902;-74